Terminal Aerodrome Forecast
Issued by NWS Wilmington, OH

Current Version | Previous Version | Text Only | Print | Product List | Glossary Off
Versions: 1 2 3 4 5 6 7 8 9 10 11 12 13 14 15 16 17 18 19 20 21 22 23 24 25

000
FTUS41 KILN 200700 AAA
TAFILN
TAF AMD
KILN 200729Z 2007/2106 25008KT 5SM -TSRA BR OVC040CB
     FM200800 27008KT 4SM BR BKN100
     FM201000 21003KT 2SM BR SCT012
     FM201400 26007KT P6SM SCT025
     FM201700 28012G20KT P6SM SCT040
     FM210000 27007KT P6SM SCT100 BKN250=

USA.gov is the U.S. government's official web portal to all federal, state and local government web resources and services.